Terminal Aerodrome Forecast
Issued by NWS

Home | Current Version | Previous Version | Text Only | Print | Product List | Glossary On
Versions: 1 2 3 4 5 6 7 8 9 10 11 12 13 14 15 16 17 18
000
FTUS44 KCRP 212300
TAFALI
TAF
KALI 212330Z 2200/2224 09004KT P6SM OVC012
     FM220300 VRB03KT 5SM BR OVC009
     FM220700 19004KT 1SM BR OVC004
     FM221000 VRB03KT 1/2SM FG OVC002
      TEMPO 2210/2214 1/4SM FG VV001
     FM221500 20006KT 2SM BR SCT008
     FM221600 21009KT P6SM SCT015
     FM221800 23011KT P6SM SKC=

USA.gov is the U.S. government's official web portal to all federal, state and local government web resources and services.